Time;durP1;ratioP1;P1;durP2;ratioP2;P2;SDS_P1;SDS_P2;PMS_P1;PMS_P2;Temp;Humidity;BMP_temperature;BMP_pressure;BME280_temperature;BME280_humidity;BME280_pressure;Samples;Min_cycle;Max_cycle;Signal;HPM_P1;HPM_P2
2022/10/12 00:01:34;;;;;;;2.40;0.65;;;;;;;8.87;79.67;100719.53;4853461;28;20097;-84
2022/10/12 00:04:05;;;;;;;1.65;1.00;;;;;;;8.88;79.67;100730.81;4851115;28;20109;-82
2022/10/12 00:06:59;;;;;;;3.55;0.93;;;;;;;8.16;79.89;100607.63;5121149;27;20426;-57
2022/10/12 00:09:57;;;;;;;3.70;0.95;;;;;;;8.89;80.76;100728.22;5100901;28;20134;-58
2022/10/12 00:12:40;;;;;;;1.15;0.70;;;;;;;8.93;81.46;100724.72;5100407;28;20056;-57
2022/10/12 00:15:45;;;;;;;4.90;1.20;;;;;;;8.97;82.88;100736.88;5068819;28;20354;-57
2022/10/12 00:18:31;;;;;;;3.72;1.13;;;;;;;8.96;83.85;100727.34;4925193;28;20065;-58
2022/10/12 00:21:10;;;;;;;2.85;0.98;;;;;;;9.13;84.62;100736.84;4962996;28;20122;-58
2022/10/12 00:23:56;;;;;;;5.25;1.38;;;;;;;9.18;84.09;100750.72;4941084;28;20060;-58
2022/10/12 00:26:52;;;;;;;13.63;8.85;;;;;;;9.22;82.85;100744.66;4895301;28;20053;-57
2022/10/12 00:29:45;;;;;;;7.07;3.30;;;;;;;9.22;83.21;100752.47;4879106;28;20053;-58
2022/10/12 00:32:20;;;;;;;4.20;2.20;;;;;;;9.27;82.62;100761.16;4901806;28;20051;-58
2022/10/12 00:35:11;;;;;;;1.90;0.70;;;;;;;9.28;80.95;100763.75;4914301;28;20104;-58
2022/10/12 00:38:11;;;;;;;2.33;0.80;;;;;;;9.32;80.66;100769.81;4879444;28;20353;-58
2022/10/12 00:41:07;;;;;;;5.13;0.95;;;;;;;9.34;80.56;100778.50;4923767;28;20062;-58
2022/10/12 00:43:57;;;;;;;3.85;0.70;;;;;;;9.23;80.69;100764.63;4899867;28;20055;-58
2022/10/12 00:46:47;;;;;;;4.53;2.30;;;;;;;9.22;80.62;100783.75;4933038;28;20098;-60
2022/10/12 00:49:27;;;;;;;3.33;0.70;;;;;;;9.26;81.03;100790.69;4906933;28;20048;-59
2022/10/12 00:52:21;;;;;;;3.25;0.70;;;;;;;9.28;81.07;100794.16;4863832;28;20069;-60
2022/10/12 00:55:16;;;;;;;2.00;0.93;;;;;;;9.36;80.79;100800.25;4886188;28;20045;-59
2022/10/12 00:58:07;;;;;;;5.15;1.00;;;;;;;9.44;80.68;100811.53;4849026;28;20099;-59
2022/10/12 01:00:47;;;;;;;2.75;0.85;;;;;;;9.47;80.16;100811.50;4871302;28;20576;-59
2022/10/12 01:03:26;;;;;;;5.03;1.02;;;;;;;9.57;79.42;100816.69;4893303;28;20066;-59
2022/10/12 01:06:31;;;;;;;8.20;0.88;;;;;;;9.68;77.07;100804.47;4887047;28;20318;-59
2022/10/12 01:09:18;;;;;;;8.02;0.90;;;;;;;9.53;76.67;100776.69;4866695;28;20046;-60
2022/10/12 01:12:01;;;;;;;3.30;0.90;;;;;;;9.90;78.42;100816.53;4856052;28;20377;-59
2022/10/12 01:14:44;;;;;;;2.55;0.65;;;;;;;9.92;77.27;100821.78;4887034;28;20081;-60
2022/10/12 01:21:11;;;;;;;4.55;0.93;;;;;;;9.86;72.50;100820.06;4890043;28;20110;-60
2022/10/12 01:25:00;;;;;;;4.47;1.05;;;;;;;9.89;73.18;100834.84;4838669;28;20514;-63
2022/10/12 01:27:53;;;;;;;7.15;1.30;;;;;;;9.93;74.10;100832.22;4868532;28;20405;-60
2022/10/12 01:30:37;;;;;;;3.50;0.60;;;;;;;10.07;73.27;100834.75;4882696;28;20216;-59
2022/10/12 01:33:31;;;;;;;5.57;0.85;;;;;;;10.20;72.73;100840.75;4898434;28;20090;-59
2022/10/12 01:36:18;;;;;;;4.47;0.70;;;;;;;10.25;71.48;100844.22;4923689;28;20044;-61
2022/10/12 01:39:14;;;;;;;2.90;0.70;;;;;;;10.26;69.15;100845.97;4890381;28;20048;-62
2022/10/12 01:41:59;;;;;;;4.55;1.20;;;;;;;10.21;70.34;100855.56;4915507;28;20057;-61
2022/10/12 01:44:52;;;;;;;5.43;0.80;;;;;;;10.18;69.38;100863.41;4904687;28;20091;-60
2022/10/12 01:47:43;;;;;;;3.85;1.02;;;;;;;10.10;68.11;100859.97;4879065;28;20268;-63
2022/10/12 01:50:28;;;;;;;3.75;0.68;;;;;;;10.07;69.87;100876.53;4902299;28;20433;-59
2022/10/12 01:53:22;;;;;;;2.42;0.60;;;;;;;10.07;70.41;100875.66;4897113;28;20094;-59
2022/10/12 01:56:16;;;;;;;2.03;0.57;;;;;;;10.06;71.56;100885.25;4880439;28;20244;-58
2022/10/12 01:59:14;;;;;;;3.22;0.93;;;;;;;10.02;70.30;100887.88;4910566;28;20056;-59
2022/10/12 02:02:14;;;;;;;2.97;1.02;;;;;;;10.05;70.93;100896.53;4916959;28;20232;-62
2022/10/12 02:05:33;;;;;;;2.83;0.82;;;;;;;9.99;68.21;100895.72;4890125;28;20050;-62
2022/10/12 02:08:33;;;;;;;3.72;0.70;;;;;;;9.99;68.21;100903.56;4892506;28;20226;-64
2022/10/12 02:11:39;;;;;;;4.78;0.80;;;;;;;9.96;68.24;100903.53;4927222;28;20053;-62
2022/10/12 02:14:35;;;;;;;3.33;0.70;;;;;;;10.02;68.11;100908.75;4848453;28;20045;-63
2022/10/12 02:17:29;;;;;;;3.00;0.65;;;;;;;10.03;66.55;100910.47;4907879;28;20049;-60
2022/10/12 02:20:14;;;;;;;2.70;0.90;;;;;;;9.95;66.95;100897.47;4888537;28;20075;-59
2022/10/12 02:23:03;;;;;;;2.22;0.88;;;;;;;10.07;67.74;100922.66;4884226;28;20061;-62
2022/10/12 02:25:45;;;;;;;4.65;0.70;;;;;;;10.12;66.48;100926.13;4811208;28;20065;-64
2022/10/12 02:31:47;;;;;;;2.60;0.70;;;;;;;9.81;65.29;100853.16;4874027;28;20332;-63
2022/10/12 02:34:37;;;;;;;4.53;0.85;;;;;;;10.34;66.64;100933.03;4904654;28;20284;-60
2022/10/12 02:37:28;;;;;;;3.95;0.70;;;;;;;10.49;66.75;100936.44;4887953;28;20518;-60
2022/10/12 02:40:32;;;;;;;4.07;0.77;;;;;;;10.55;66.50;100941.63;4894232;28;20834;-62
2022/10/12 02:43:20;;;;;;;4.40;1.45;;;;;;;10.54;65.60;100940.75;4850579;28;20049;-61
2022/10/12 02:46:08;;;;;;;3.97;0.80;;;;;;;10.47;64.05;100943.41;4852931;28;20049;-63
2022/10/12 02:48:58;;;;;;;1.27;0.60;;;;;;;10.41;64.67;100949.53;4886896;28;20095;-63
2022/10/12 02:51:53;;;;;;;3.35;0.60;;;;;;;10.38;65.24;100951.28;4876547;28;20088;-59
2022/10/12 02:54:47;;;;;;;3.63;0.90;;;;;;;10.38;65.88;100943.44;4900845;28;20053;-61
2022/10/12 02:57:47;;;;;;;4.65;0.80;;;;;;;10.53;64.10;100953.81;4894181;28;20056;-63
2022/10/12 03:00:38;;;;;;;4.15;0.60;;;;;;;10.69;59.60;100960.72;4891729;28;20057;-62
2022/10/12 03:03:21;;;;;;;1.45;0.50;;;;;;;10.75;61.41;100944.97;4857602;28;20053;-62
2022/10/12 03:06:01;;;;;;;2.78;0.82;;;;;;;11.00;59.18;100955.28;4882609;28;20069;-61
2022/10/12 03:08:52;;;;;;;2.65;0.60;;;;;;;11.03;60.74;100960.47;4892150;28;20206;-60
2022/10/12 03:11:46;;;;;;;1.10;0.68;;;;;;;11.01;60.46;100967.50;4892391;28;20041;-65
2022/10/12 03:14:43;;;;;;;;;;;;;;;11.20;62.48;100963.84;4871414;28;20052;-59
2022/10/12 03:17:33;;;;;;;4.32;0.98;;;;;;;11.50;60.69;100954.00;4857789;28;19917;-63
2022/10/12 03:20:36;;;;;;;3.67;1.30;;;;;;;11.86;61.15;100970.25;4847535;28;20057;-63
2022/10/12 03:23:31;;;;;;;3.30;0.90;;;;;;;12.15;58.65;100966.47;4871910;28;20057;-62
2022/10/12 03:26:29;;;;;;;1.92;0.70;;;;;;;12.29;56.99;100977.66;4872466;28;20068;-60
2022/10/12 03:32:19;;;;;;;1.63;0.50;;;;;;;12.16;56.46;100968.22;4848303;28;20053;-62
2022/10/12 03:35:12;;;;;;;6.78;0.90;;;;;;;11.83;56.52;100972.88;4833488;28;20058;-64
2022/10/12 03:37:56;;;;;;;3.83;0.50;;;;;;;11.57;58.76;100981.84;4863427;28;20046;-61
2022/10/12 03:40:42;;;;;;;1.80;0.55;;;;;;;11.49;58.93;100986.31;4845335;28;20066;-60
2022/10/12 03:43:27;;;;;;;6.50;1.25;;;;;;;11.21;58.17;100970.81;4860501;28;20166;-61
2022/10/12 03:46:21;;;;;;;0.50;0.50;;;;;;;11.08;58.80;100990.09;4892997;28;20041;-62
2022/10/12 03:49:03;;;;;;;1.70;0.60;;;;;;;10.84;59.29;100985.03;4885969;28;20172;-64
2022/10/12 03:51:48;;;;;;;4.40;0.60;;;;;;;10.77;60.00;100994.66;4862950;28;20049;-62
2022/10/12 03:54:43;;;;;;;3.75;1.00;;;;;;;10.66;60.96;100999.94;4880570;28;20053;-62
2022/10/12 03:57:24;;;;;;;2.05;0.60;;;;;;;10.67;60.60;100993.81;4892729;28;20045;-61
2022/10/12 04:00:36;;;;;;;3.38;0.90;;;;;;;10.48;61.22;100956.47;4876277;28;20156;-60
2022/10/12 04:03:14;;;;;;;4.43;0.93;;;;;;;10.79;61.73;100992.91;4898871;28;20103;-59
2022/10/12 04:06:11;;;;;;;2.58;0.50;;;;;;;10.80;60.67;100999.84;4895648;28;20347;-60
2022/10/12 04:08:45;;;;;;;1.35;0.70;;;;;;;10.80;61.47;101011.16;4852856;28;20072;-60
2022/10/12 04:11:43;;;;;;;3.67;0.80;;;;;;;10.91;59.53;101007.66;4869595;28;20316;-60
2022/10/12 04:14:55;;;;;;;2.65;0.50;;;;;;;11.02;61.41;101011.91;4894081;28;20041;-60
2022/10/12 04:17:49;;;;;;;2.30;1.05;;;;;;;11.18;60.94;101012.72;4889674;28;20721;-61
2022/10/12 04:20:28;;;;;;;3.13;0.90;;;;;;;11.28;59.68;101017.84;4852586;28;20065;-60
2022/10/12 04:23:20;;;;;;;3.55;0.60;;;;;;;11.25;59.26;101003.06;4897652;28;20053;-60
2022/10/12 04:26:04;;;;;;;7.15;0.80;;;;;;;11.46;60.90;101022.97;4870486;28;20061;-60
2022/10/12 04:29:01;;;;;;;2.15;0.50;;;;;;;11.31;60.42;101023.09;4878063;28;20273;-59
2022/10/12 04:32:01;;;;;;;3.58;0.68;;;;;;;11.35;60.76;101027.41;4860983;28;20116;-61
2022/10/12 04:34:48;;;;;;;;;;;;;;;11.43;59.73;101028.19;4861432;28;20125;-60
2022/10/12 04:37:37;;;;;;;3.83;0.50;;;;;;;11.41;59.45;101030.84;4850299;28;19963;-61
2022/10/12 04:40:32;;;;;;;4.13;0.70;;;;;;;11.38;60.90;101033.50;4886449;28;20467;-60
2022/10/12 04:43:34;;;;;;;1.67;0.77;;;;;;;11.36;61.42;101039.63;4874624;28;20539;-60
2022/10/12 04:46:14;;;;;;;1.75;0.60;;;;;;;11.38;60.67;101041.34;4876763;28;20287;-59
2022/10/12 04:49:02;;;;;;;3.08;0.60;;;;;;;11.28;62.07;101007.38;4884946;28;20050;-60
2022/10/12 04:51:40;;;;;;;4.57;0.50;;;;;;;11.46;59.56;101049.13;4871486;28;20061;-60
2022/10/12 04:54:12;;;;;;;1.40;0.65;;;;;;;11.35;59.11;101053.56;4903315;28;20049;-59
2022/10/12 04:57:08;;;;;;;1.75;0.60;;;;;;;11.30;60.13;101057.97;4869991;28;20752;-59
2022/10/12 05:00:00;;;;;;;2.47;0.50;;;;;;;11.07;59.73;101072.06;4873087;28;20065;-61
2022/10/12 05:02:45;;;;;;;2.50;0.98;;;;;;;10.96;60.24;101073.88;4855547;28;20132;-60
2022/10/12 05:05:37;;;;;;;1.58;0.65;;;;;;;10.75;59.57;101046.94;4880054;28;20041;-61
2022/10/12 05:11:15;;;;;;;1.63;0.80;;;;;;;10.78;58.54;101080.91;4900536;28;20057;-61
2022/10/12 05:14:16;;;;;;;1.80;0.70;;;;;;;10.54;58.25;101097.53;4903824;28;20049;-63
2022/10/12 05:16:51;;;;;;;4.70;1.00;;;;;;;10.34;59.28;101091.50;4924709;28;20045;-63
2022/10/12 05:19:36;;;;;;;1.48;0.77;;;;;;;10.13;58.13;101106.31;4890157;28;20302;-62
2022/10/12 05:22:15;;;;;;;3.78;0.77;;;;;;;10.01;57.60;101121.09;4918996;28;20050;-64
2022/10/12 05:25:07;;;;;;;2.95;0.80;;;;;;;9.94;57.93;101123.72;4887393;28;20065;-67
2022/10/12 05:27:56;;;;;;;2.85;0.77;;;;;;;9.89;55.74;101133.28;4870755;28;20094;-64
2022/10/12 05:30:39;;;;;;;2.50;0.70;;;;;;;9.96;55.66;101139.41;4916332;28;20160;-62
2022/10/12 05:33:36;;;;;;;4.03;0.98;;;;;;;9.92;56.84;101133.28;4850830;28;20060;-64
2022/10/12 05:36:23;;;;;;;2.13;0.95;;;;;;;10.04;55.68;101136.78;4852246;28;20243;-63
2022/10/12 05:39:03;;;;;;;3.88;0.80;;;;;;;10.01;56.29;101148.09;4872231;28;20053;-61
2022/10/12 05:41:55;;;;;;;2.00;0.63;;;;;;;10.08;55.27;101148.94;4824052;28;20092;-65
2022/10/12 05:44:39;;;;;;;3.28;1.10;;;;;;;10.15;55.79;101161.13;4882427;28;20297;-61
2022/10/12 05:47:26;;;;;;;4.50;1.10;;;;;;;10.17;55.41;101159.41;4909206;28;20045;-64
2022/10/12 05:50:23;;;;;;;4.65;1.00;;;;;;;10.14;55.18;101169.84;4892916;28;20080;-64
2022/10/12 05:53:26;;;;;;;4.35;1.10;;;;;;;10.08;54.23;101170.75;4897941;28;20045;-66
2022/10/12 05:56:03;;;;;;;3.85;1.20;;;;;;;10.12;54.15;101176.81;4884422;28;20048;-65
2022/10/12 05:58:50;;;;;;;1.48;0.90;;;;;;;10.22;54.62;101178.56;4856109;28;20046;-68
2022/10/12 06:05:04;;;;;;;2.78;0.90;;;;;;;10.26;53.69;101180.31;4890187;28;20062;-64
2022/10/12 06:07:44;;;;;;;2.85;0.90;;;;;;;10.34;53.63;101196.88;4920493;28;20054;-64
2022/10/12 06:10:34;;;;;;;5.63;1.17;;;;;;;10.31;54.03;101194.25;4901728;28;20350;-64
2022/10/12 06:13:32;;;;;;;3.92;0.90;;;;;;;10.29;55.13;101211.69;4912495;28;20046;-65
2022/10/12 06:16:19;;;;;;;2.75;1.10;;;;;;;10.29;54.45;101211.69;4887105;28;20338;-63
2022/10/12 06:18:57;;;;;;;5.32;1.20;;;;;;;10.27;55.86;101218.59;4876300;28;20381;-63
2022/10/12 06:21:50;;;;;;;3.40;1.10;;;;;;;10.29;55.53;101224.72;4838482;28;20048;-62
2022/10/12 06:24:54;;;;;;;2.90;1.25;;;;;;;10.29;56.21;101229.97;4906396;28;20052;-61
2022/10/12 06:27:36;;;;;;;4.28;1.02;;;;;;;10.24;55.96;101234.28;4930898;28;20312;-63
2022/10/12 06:36:26;;;;;;;4.57;1.48;;;;;;;10.05;55.03;101264.72;4860248;28;20049;-61
2022/10/12 06:39:19;;;;;;;7.00;1.27;;;;;;;10.02;56.78;101269.06;4867468;28;20053;-60
2022/10/12 06:42:01;;;;;;;4.78;1.40;;;;;;;9.97;56.95;101262.97;4908011;28;20098;-62
2022/10/12 06:44:35;;;;;;;;;;;;;;;9.86;54.89;101278.59;4886731;28;20329;-64
2022/10/12 06:47:36;;;;;;;2.65;1.10;;;;;;;9.77;54.66;101289.88;4904797;28;19973;-61
2022/10/12 06:50:24;;;;;;;10.95;1.10;;;;;;;9.35;55.15;101239.28;4886168;28;20041;-62
2022/10/12 06:56:40;;;;;;;6.05;2.15;;;;;;;9.34;56.98;101297.53;4866432;28;20057;-63
2022/10/12 07:02:23;;;;;;;3.20;1.20;;;;;;;9.09;57.26;101308.69;4882458;28;20082;-63
2022/10/12 07:08:02;;;;;;;6.97;1.42;;;;;;;8.85;57.53;101316.34;4860208;28;20081;-65
2022/10/12 07:10:39;;;;;;;1.70;1.10;;;;;;;8.75;57.86;101318.88;4871087;28;20057;-61
2022/10/12 07:13:23;;;;;;;2.88;1.30;;;;;;;8.67;58.18;101329.22;4802074;28;20202;-63
2022/10/12 07:16:01;;;;;;;9.02;2.22;;;;;;;8.62;58.83;101334.41;4871142;28;20053;-63
2022/10/12 07:18:50;;;;;;;6.80;1.65;;;;;;;8.54;59.66;101341.28;4872215;28;20062;-62
2022/10/12 07:21:37;;;;;;;2.65;1.48;;;;;;;8.52;60.18;101343.00;4845082;28;20073;-63
2022/10/12 07:24:17;;;;;;;4.32;1.55;;;;;;;8.49;59.49;101353.38;4875924;28;20474;-61
2022/10/12 07:27:03;;;;;;;5.80;1.52;;;;;;;8.41;59.49;101355.03;4862943;28;20076;-62
2022/10/12 07:30:18;;;;;;;3.30;1.75;;;;;;;8.39;60.02;101367.16;4858937;28;20049;-62
2022/10/12 07:33:06;;;;;;;7.82;1.55;;;;;;;8.30;60.23;101364.44;4904939;28;20298;-62
2022/10/12 07:35:56;;;;;;;5.68;1.88;;;;;;;8.19;60.95;101370.41;4889652;28;20057;-62
2022/10/12 07:38:57;;;;;;;3.65;1.52;;;;;;;8.07;59.76;101370.25;4886481;28;20046;-61
2022/10/12 07:44:42;;;;;;;3.67;1.40;;;;;;;7.95;60.28;101376.19;4906481;28;20331;-62
2022/10/12 07:50:34;;;;;;;4.93;1.60;;;;;;;7.78;61.90;101388.13;4872297;28;20068;-60
2022/10/12 07:53:41;;;;;;;4.07;1.52;;;;;;;7.63;60.79;101396.59;4905750;28;20065;-62
2022/10/12 07:59:44;;;;;;;2.53;1.30;;;;;;;7.37;59.91;101401.44;4906835;28;20113;-60
2022/10/12 08:02:28;;;;;;;4.72;1.45;;;;;;;7.23;59.96;101409.00;4920062;28;20102;-61
2022/10/12 08:07:52;;;;;;;2.95;1.40;;;;;;;7.06;61.49;101428.66;4894912;28;20045;-61
2022/10/12 08:10:34;;;;;;;4.80;1.70;;;;;;;7.00;61.53;101445.03;4869754;28;20041;-60
2022/10/12 08:13:20;;;;;;;9.02;1.73;;;;;;;6.98;64.81;101445.84;4847360;28;20048;-61
2022/10/12 08:16:01;;;;;;;8.15;1.95;;;;;;;6.90;64.36;101456.97;4885093;28;20045;-61
2022/10/12 08:19:03;;;;;;;6.97;2.15;;;;;;;6.35;66.26;101413.53;4906960;28;20076;-63
2022/10/12 08:21:45;;;;;;;9.10;3.00;;;;;;;6.39;67.88;101462.94;4856576;28;20045;-61
2022/10/12 08:24:22;;;;;;;5.65;2.42;;;;;;;6.24;69.60;101468.72;4844625;28;20070;-61
2022/10/12 08:27:11;;;;;;;4.75;2.60;;;;;;;5.97;71.38;101469.00;4837558;28;20053;-61
2022/10/12 08:29:59;;;;;;;22.00;7.25;;;;;;;5.71;72.96;101476.16;4848974;28;20043;-61
2022/10/12 08:32:36;;;;;;;47.25;19.80;;;;;;;5.43;74.30;101479.81;4845263;28;20064;-60
2022/10/12 08:35:15;;;;;;;70.93;27.67;;;;;;;5.26;75.18;101475.94;4862089;28;20103;-62
2022/10/12 08:38:01;;;;;;;38.20;15.88;;;;;;;5.07;76.50;101485.84;4816749;28;20057;-61
2022/10/12 08:41:02;;;;;;;36.75;15.48;;;;;;;4.84;78.38;101476.59;4898902;28;20049;-61
2022/10/12 08:47:25;;;;;;;13.57;5.45;;;;;;;4.64;79.60;101505.44;4851756;28;20357;-62
2022/10/12 08:50:18;;;;;;;7.53;3.40;;;;;;;4.65;79.94;101508.88;4901493;28;20045;-60
2022/10/12 08:53:29;;;;;;;4.30;2.38;;;;;;;4.64;79.62;101510.59;4913166;28;20045;-61
2022/10/12 08:56:35;;;;;;;14.90;7.20;;;;;;;4.69;78.97;101524.56;4887094;28;20042;-61
2022/10/12 08:59:25;;;;;;;11.40;7.53;;;;;;;4.66;78.66;101529.63;4861109;28;20049;-61
2022/10/12 09:02:41;;;;;;;5.70;3.25;;;;;;;4.56;79.03;101531.94;4829340;28;20061;-62
2022/10/12 09:05:31;;;;;;;5.95;2.55;;;;;;;4.40;79.63;101530.63;4842307;28;20058;-62
2022/10/12 09:08:30;;;;;;;5.25;2.92;;;;;;;4.28;80.21;101534.59;4878805;28;20296;-63
2022/10/12 09:11:57;;;;;;;;;;;;;;;;;;;;;
2022/10/12 09:15:38;;;;;;;15.82;6.47;;;;;;;4.14;81.19;101543.63;4783896;28;20077;-62
2022/10/12 09:18:23;;;;;;;12.30;6.40;;;;;;;4.15;81.09;101545.41;4791518;28;20039;-62
2022/10/12 09:21:35;;;;;;;14.02;5.68;;;;;;;4.11;80.85;101553.91;4750766;29;20072;-61
2022/10/12 09:24:24;;;;;;;11.20;5.80;;;;;;;4.12;81.11;101566.00;4737513;29;20220;-62
2022/10/12 09:27:31;;;;;;;12.27;5.80;;;;;;;4.20;82.00;101585.22;4809799;28;20055;-63
2022/10/12 09:30:19;;;;;;;7.22;3.65;;;;;;;4.12;82.51;101573.78;4766131;28;20055;-62
2022/10/12 09:33:16;;;;;;;5.22;2.80;;;;;;;4.16;82.75;101595.44;4834890;28;20483;-63
2022/10/12 09:35:56;;;;;;;4.53;2.50;;;;;;;4.15;82.88;101604.91;4795355;28;20059;-61
2022/10/12 09:41:47;;;;;;;11.38;3.60;;;;;;;3.87;83.49;101578.16;4787568;28;20478;-61
2022/10/12 09:44:38;;;;;;;16.92;6.70;;;;;;;3.94;83.66;101601.63;4760724;28;20059;-62
2022/10/12 09:47:36;;;;;;;18.92;10.45;;;;;;;3.87;83.13;101601.44;4796121;28;20058;-62
2022/10/12 09:50:46;;;;;;;15.55;8.52;;;;;;;3.58;83.00;101607.34;4811239;28;20055;-63
2022/10/12 09:54:08;;;;;;;10.75;7.75;;;;;;;3.35;84.03;101624.66;4809777;28;20063;-62
2022/10/12 09:56:54;;;;;;;22.40;15.68;;;;;;;2.80;85.15;101577.09;4803548;28;20687;-62
2022/10/12 09:59:51;;;;;;;8.55;5.35;;;;;;;2.27;85.97;101506.31;4864969;28;20056;-61
2022/10/12 10:02:30;;;;;;;7.50;3.42;;;;;;;2.87;87.14;101627.22;4870409;28;20048;-61
2022/10/12 10:05:38;;;;;;;8.20;3.10;;;;;;;2.84;87.41;101635.75;4876569;28;20129;-60
2022/10/12 10:08:49;;;;;;;4.75;3.13;;;;;;;2.84;88.19;101640.03;4889427;28;20250;-61
2022/10/12 10:11:45;;;;;;;6.70;2.40;;;;;;;2.76;88.48;101647.50;4903043;28;20048;-62
2022/10/12 10:14:35;;;;;;;6.30;2.90;;;;;;;2.85;88.84;101663.34;4910915;28;21070;-63
2022/10/12 10:17:47;;;;;;;5.90;2.75;;;;;;;2.85;88.56;101665.91;4919437;28;20071;-61
2022/10/12 10:24:12;;;;;;;2.87;2.00;;;;;;;2.77;88.89;101675.06;4710831;27;6661545;-63
2022/10/12 10:27:03;;;;;;;5.05;2.95;;;;;;;2.79;88.26;101688.91;4938293;28;20123;-61
2022/10/12 10:29:46;;;;;;;6.13;2.58;;;;;;;2.48;88.38;101638.69;4901034;28;20041;-62
2022/10/12 10:32:43;;;;;;;9.70;3.50;;;;;;;2.74;88.62;101674.94;4935865;28;20484;-62
2022/10/12 10:35:31;;;;;;;11.18;4.03;;;;;;;2.85;88.66;101689.16;4919831;28;20305;-62
2022/10/12 10:41:41;;;;;;;14.68;4.70;;;;;;;3.01;88.78;101712.13;4906085;28;20048;-62
2022/10/12 10:44:34;;;;;;;12.73;4.88;;;;;;;3.01;88.48;101714.72;4921871;28;20037;-63
2022/10/12 10:47:13;;;;;;;11.00;5.30;;;;;;;2.98;88.36;101705.97;4902142;28;20057;-63
2022/10/12 10:53:13;;;;;;;8.85;4.82;;;;;;;2.90;88.76;101710.84;4899229;28;20173;-63
2022/10/12 10:56:07;;;;;;;9.15;4.00;;;;;;;2.93;88.41;101723.00;4885235;28;20257;-64
2022/10/12 10:59:17;;;;;;;12.15;8.02;;;;;;;2.85;88.42;101725.28;4928971;28;20049;-62
2022/10/12 11:02:05;;;;;;;19.40;9.30;;;;;;;2.53;88.31;101681.03;4920398;28;20071;-62
2022/10/12 11:04:55;;;;;;;8.38;5.55;;;;;;;2.75;88.03;101718.91;4914947;28;20098;-63
2022/10/12 11:07:35;;;;;;;;;;;;;;;2.69;88.36;101725.50;4917196;28;20069;-62
2022/10/12 11:10:38;;;;;;;5.75;2.70;;;;;;;2.51;88.32;101712.75;4925375;28;19940;-62
2022/10/12 11:13:26;;;;;;;5.68;2.58;;;;;;;2.27;89.03;101685.19;4872838;28;20056;-63
2022/10/12 11:16:32;;;;;;;5.68;2.45;;;;;;;2.62;89.71;101741.56;4919383;28;20038;-63
2022/10/12 11:19:31;;;;;;;2.97;2.15;;;;;;;2.65;89.59;101741.72;4918286;28;20064;-63
2022/10/12 11:22:38;;;;;;;2.65;1.90;;;;;;;1.98;89.61;101647.03;4930596;28;20082;-64
2022/10/12 11:25:40;;;;;;;5.03;2.20;;;;;;;2.63;89.48;101753.66;4912756;28;20052;-63
2022/10/12 11:32:20;;;;;;;5.72;3.50;;;;;;;2.43;89.01;101761.47;4933429;28;20052;-63
2022/10/12 11:38:30;;;;;;;4.05;2.63;;;;;;;2.21;89.93;101764.00;4933702;28;20250;-63
2022/10/12 11:41:44;;;;;;;6.47;3.78;;;;;;;2.16;90.03;101762.09;4941764;28;20040;-62
2022/10/12 11:48:24;;;;;;;3.42;2.38;;;;;;;2.18;90.83;101766.44;4942492;28;21553;-63
2022/10/12 11:51:11;;;;;;;3.28;2.25;;;;;;;2.03;91.09;101739.19;4924629;28;20033;-64
2022/10/12 11:54:21;;;;;;;3.33;2.38;;;;;;;2.16;91.10;101736.31;4944786;28;20044;-63
2022/10/12 11:57:23;;;;;;;7.38;2.30;;;;;;;2.39;90.89;101775.06;4905050;28;20104;-63
2022/10/12 12:06:54;;;;;;;4.75;2.30;;;;;;;2.34;90.82;101781.72;4849245;28;20053;-62
2022/10/12 12:09:51;;;;;;;6.20;2.50;;;;;;;2.36;90.65;101787.84;4944089;28;20286;-62
2022/10/12 12:12:33;;;;;;;5.93;3.80;;;;;;;2.00;90.38;101736.50;4907879;28;20053;-64
2022/10/12 12:15:24;;;;;;;8.35;4.95;;;;;;;2.25;90.21;101781.38;4941143;28;20055;-62
2022/10/12 12:18:24;;;;;;;15.02;4.63;;;;;;;2.27;90.25;101798.66;4918029;28;20054;-61
2022/10/12 12:21:08;;;;;;;6.05;4.18;;;;;;;2.11;89.68;101789.38;4951922;28;20055;-61
2022/10/12 12:24:01;;;;;;;9.02;4.70;;;;;;;1.87;89.85;101757.41;4959063;28;21241;-63
2022/10/12 12:27:00;;;;;;;8.80;4.55;;;;;;;2.08;89.79;101803.84;4945796;28;20047;-62
2022/10/12 12:29:42;;;;;;;9.95;4.03;;;;;;;2.05;90.07;101804.59;4946399;28;20052;-63
2022/10/12 12:32:20;;;;;;;7.00;3.80;;;;;;;2.03;89.99;101806.22;4965523;28;20052;-63
2022/10/12 12:35:22;;;;;;;7.20;3.92;;;;;;;1.92;89.75;101799.72;4911308;28;20053;-62
2022/10/12 12:38:29;;;;;;;10.13;4.03;;;;;;;1.91;90.39;101808.28;4921948;28;20040;-63
2022/10/12 12:41:30;;;;;;;6.63;3.47;;;;;;;2.02;90.50;101827.69;4933318;28;20044;-62
2022/10/12 12:44:49;;;;;;;6.78;3.78;;;;;;;2.02;90.05;101821.63;4936998;28;20373;-62
2022/10/12 12:47:41;;;;;;;6.88;4.15;;;;;;;1.99;89.68;101819.78;4936561;28;20054;-62
2022/10/12 12:58:24;;;;;;;11.25;5.07;;;;;;;1.72;90.22;101834.91;4925802;28;20111;-63
2022/10/12 13:08:45;;;;;;;9.32;5.03;;;;;;;1.78;90.38;101839.50;4845666;28;20049;-64
2022/10/12 13:12:07;;;;;;;10.48;5.25;;;;;;;1.76;90.37;101848.84;4835547;28;20045;-64
2022/10/12 13:15:52;;;;;;;13.40;5.22;;;;;;;1.74;90.35;101859.06;4841293;28;20049;-64
2022/10/12 13:25:10;;;;;;;9.63;4.78;;;;;;;1.68;90.29;101853.66;4851583;28;20107;-65
2022/10/12 13:28:03;;;;;;;8.98;3.78;;;;;;;1.72;90.74;101853.88;4791894;28;20057;-64
2022/10/12 13:34:23;;;;;;;15.23;3.38;;;;;;;1.70;91.09;101822.00;4808302;28;20501;-65
2022/10/12 13:37:26;;;;;;;7.60;3.08;;;;;;;1.18;91.37;101726.91;4868540;28;20086;-61
2022/10/12 13:43:57;;;;;;;6.88;3.05;;;;;;;1.93;91.15;101840.16;4906027;28;20048;-66
2022/10/12 13:46:53;;;;;;;5.32;2.85;;;;;;;1.90;91.14;101840.03;4935172;28;20044;-61
2022/10/12 13:49:33;;;;;;;5.65;2.83;;;;;;;1.83;90.60;101832.84;4935742;28;20091;-62
2022/10/12 13:52:25;;;;;;;4.80;3.30;;;;;;;1.82;90.82;101831.06;4923601;28;20075;-62
2022/10/12 13:55:19;;;;;;;6.32;2.40;;;;;;;1.81;90.48;101839.63;4917418;28;20068;-66
2022/10/12 13:58:02;;;;;;;9.07;2.97;;;;;;;1.75;90.51;101829.03;4874816;28;20695;-64
2022/10/12 14:00:42;;;;;;;6.72;2.83;;;;;;;1.77;90.31;101832.56;4946728;28;20045;-62
2022/10/12 14:03:48;;;;;;;7.13;2.78;;;;;;;1.78;90.56;101836.91;4892501;28;20044;-64
2022/10/12 14:06:43;;;;;;;5.00;2.28;;;;;;;1.71;90.45;101823.75;4932735;28;20056;-62
2022/10/12 14:09:31;;;;;;;4.45;2.90;;;;;;;1.81;90.83;101829.31;4931425;28;20048;-62
2022/10/12 14:12:14;;;;;;;5.32;2.90;;;;;;;1.86;90.61;101833.84;4937603;28;20087;-62
2022/10/12 14:14:57;;;;;;;8.90;3.67;;;;;;;1.83;90.51;101822.53;4904376;28;20078;-61
2022/10/12 14:20:55;;;;;;;10.50;4.25;;;;;;;1.96;90.78;101823.94;4917786;28;20067;-65
2022/10/12 14:23:30;;;;;;;;;;;;;;;2.03;90.85;101826.84;4902949;28;20071;-62
2022/10/12 14:26:18;;;;;;;7.03;4.15;;;;;;;2.03;90.72;101826.84;4898463;28;19916;-67
2022/10/12 14:28:59;;;;;;;8.57;4.40;;;;;;;1.95;90.43;101823.06;4901568;28;20056;-63
2022/10/12 14:31:53;;;;;;;7.57;4.00;;;;;;;1.88;90.59;101833.94;4922648;28;20037;-65
2022/10/12 14:37:51;;;;;;;7.13;3.60;;;;;;;1.84;90.41;101826.88;4803159;28;20055;-61
2022/10/12 14:40:48;;;;;;;10.27;4.25;;;;;;;1.79;90.28;101836.97;4863042;28;20101;-64
2022/10/12 14:43:51;;;;;;;5.93;3.22;;;;;;;1.79;90.25;101836.09;4852050;28;20487;-66
2022/10/12 14:47:01;;;;;;;9.55;3.67;;;;;;;1.57;89.45;101829.97;4791648;29;20052;-64
2022/10/12 14:50:06;;;;;;;9.23;4.55;;;;;;;1.42;89.57;101825.03;4749176;29;20535;-63
2022/10/12 14:53:03;;;;;;;6.63;3.63;;;;;;;1.42;89.90;101829.25;4762147;29;20068;-63
2022/10/12 14:56:06;;;;;;;10.68;5.10;;;;;;;1.53;90.40;101835.81;4732349;29;20075;-64
2022/10/12 14:58:52;;;;;;;8.70;4.28;;;;;;;1.56;90.19;101837.63;4782548;29;20067;-62
2022/10/12 15:01:55;;;;;;;11.48;4.85;;;;;;;1.50;90.34;101848.56;4791628;28;20784;-66
2022/10/12 15:07:47;;;;;;;10.80;5.32;;;;;;;1.42;90.04;101843.06;4777963;28;20061;-62
2022/10/12 15:10:56;;;;;;;11.75;4.88;;;;;;;1.46;90.81;101851.78;4767618;29;20067;-64
2022/10/12 15:19:56;;;;;;;9.73;3.60;;;;;;;1.33;90.68;101846.91;4830713;28;20047;-62
2022/10/12 15:22:31;;;;;;;12.43;4.05;;;;;;;1.20;90.55;101817.09;4860334;28;20070;-62
2022/10/12 15:25:48;;;;;;;6.65;3.55;;;;;;;1.19;90.37;101831.66;4896738;28;20052;-63
2022/10/12 15:28:41;;;;;;;6.40;2.92;;;;;;;1.05;90.53;101832.72;4890902;28;20045;-63
2022/10/12 15:31:23;;;;;;;4.20;2.90;;;;;;;1.11;91.52;101838.16;4912814;28;20096;-63